sensor_id;sensor_type;location;lat;lon;timestamp;temperature;humidity
5901;DHT22;2976;49.764;9.796;2023-05-15T00:00:07;9.00;99.90
5901;DHT22;2976;49.764;9.796;2023-05-15T00:02:35;9.00;99.90
5901;DHT22;2976;49.764;9.796;2023-05-15T00:05:02;9.00;99.90
5901;DHT22;2976;49.764;9.796;2023-05-15T00:07:28;9.00;99.90
5901;DHT22;2976;49.764;9.796;2023-05-15T00:09:54;8.90;99.90
5901;DHT22;2976;49.764;9.796;2023-05-15T00:12:19;8.90;99.90
5901;DHT22;2976;49.764;9.796;2023-05-15T00:14:45;8.90;99.90
5901;DHT22;2976;49.764;9.796;2023-05-15T00:17:10;8.90;99.90
5901;DHT22;2976;49.764;9.796;2023-05-15T00:19:37;8.90;99.90
5901;DHT22;2976;49.764;9.796;2023-05-15T00:22:02;9.00;99.90
5901;DHT22;2976;49.764;9.796;2023-05-15T00:24:28;9.10;99.90
5901;DHT22;2976;49.764;9.796;2023-05-15T00:26:54;9.10;99.90
5901;DHT22;2976;49.764;9.796;2023-05-15T00:29:19;9.10;99.90
5901;DHT22;2976;49.764;9.796;2023-05-15T00:31:45;9.10;99.90
5901;DHT22;2976;49.764;9.796;2023-05-15T00:34:10;9.00;99.90
5901;DHT22;2976;49.764;9.796;2023-05-15T00:36:36;8.90;99.90
5901;DHT22;2976;49.764;9.796;2023-05-15T00:39:02;8.90;99.90
5901;DHT22;2976;49.764;9.796;2023-05-15T00:41:28;8.80;99.90
5901;DHT22;2976;49.764;9.796;2023-05-15T00:43:56;8.70;99.90
5901;DHT22;2976;49.764;9.796;2023-05-15T00:46:23;8.60;99.90
5901;DHT22;2976;49.764;9.796;2023-05-15T00:48:50;8.50;99.90
5901;DHT22;2976;49.764;9.796;2023-05-15T00:51:16;8.50;99.90
5901;DHT22;2976;49.764;9.796;2023-05-15T00:53:42;8.40;99.90
5901;DHT22;2976;49.764;9.796;2023-05-15T00:56:10;8.30;99.90
5901;DHT22;2976;49.764;9.796;2023-05-15T00:58:37;8.30;99.90
5901;DHT22;2976;49.764;9.796;2023-05-15T01:01:02;8.30;99.90
5901;DHT22;2976;49.764;9.796;2023-05-15T01:03:28;8.40;99.90
5901;DHT22;2976;49.764;9.796;2023-05-15T01:05:54;8.40;99.90
5901;DHT22;2976;49.764;9.796;2023-05-15T01:08:26;8.50;99.90
5901;DHT22;2976;49.764;9.796;2023-05-15T01:10:57;8.50;99.90
5901;DHT22;2976;49.764;9.796;2023-05-15T01:13:23;8.50;99.90
5901;DHT22;2976;49.764;9.796;2023-05-15T01:15:49;8.40;99.90
5901;DHT22;2976;49.764;9.796;2023-05-15T01:18:15;8.30;99.90
5901;DHT22;2976;49.764;9.796;2023-05-15T01:29:11;8.50;99.90
5901;DHT22;2976;49.764;9.796;2023-05-15T01:31:41;8.60;99.90
5901;DHT22;2976;49.764;9.796;2023-05-15T01:34:12;8.60;99.90
5901;DHT22;2976;49.764;9.796;2023-05-15T01:36:50;8.60;99.90
5901;DHT22;2976;49.764;9.796;2023-05-15T01:39:19;8.50;99.90
5901;DHT22;2976;49.764;9.796;2023-05-15T01:41:54;8.50;99.90
5901;DHT22;2976;49.764;9.796;2023-05-15T01:44:26;8.40;99.90
5901;DHT22;2976;49.764;9.796;2023-05-15T01:46:56;8.30;99.90
5901;DHT22;2976;49.764;9.796;2023-05-15T01:49:25;8.20;99.90
5901;DHT22;2976;49.764;9.796;2023-05-15T01:52:04;8.00;99.90
5901;DHT22;2976;49.764;9.796;2023-05-15T01:54:32;7.80;99.90
5901;DHT22;2976;49.764;9.796;2023-05-15T01:56:58;7.60;99.90
5901;DHT22;2976;49.764;9.796;2023-05-15T01:59:24;7.50;99.90
5901;DHT22;2976;49.764;9.796;2023-05-15T02:01:51;7.50;99.90
5901;DHT22;2976;49.764;9.796;2023-05-15T02:04:18;7.40;99.90
5901;DHT22;2976;49.764;9.796;2023-05-15T02:06:44;7.40;99.90
5901;DHT22;2976;49.764;9.796;2023-05-15T02:09:12;7.60;99.90
5901;DHT22;2976;49.764;9.796;2023-05-15T02:11:38;7.60;99.90
5901;DHT22;2976;49.764;9.796;2023-05-15T02:14:06;7.60;99.90
5901;DHT22;2976;49.764;9.796;2023-05-15T02:16:31;7.60;99.90
5901;DHT22;2976;49.764;9.796;2023-05-15T02:18:57;7.70;99.90
5901;DHT22;2976;49.764;9.796;2023-05-15T02:21:23;7.60;99.90
5901;DHT22;2976;49.764;9.796;2023-05-15T02:23:48;7.70;99.90
5901;DHT22;2976;49.764;9.796;2023-05-15T02:37:27;7.60;99.90
5901;DHT22;2976;49.764;9.796;2023-05-15T02:39:55;7.50;99.90
5901;DHT22;2976;49.764;9.796;2023-05-15T02:42:25;7.50;99.90
5901;DHT22;2976;49.764;9.796;2023-05-15T02:44:53;7.40;99.90
5901;DHT22;2976;49.764;9.796;2023-05-15T02:47:20;7.50;99.90
5901;DHT22;2976;49.764;9.796;2023-05-15T02:49:47;7.50;99.90
5901;DHT22;2976;49.764;9.796;2023-05-15T02:52:13;7.50;99.90
5901;DHT22;2976;49.764;9.796;2023-05-15T02:54:39;7.50;99.90
5901;DHT22;2976;49.764;9.796;2023-05-15T02:57:05;7.40;99.90
5901;DHT22;2976;49.764;9.796;2023-05-15T02:59:32;7.40;99.90
5901;DHT22;2976;49.764;9.796;2023-05-15T03:01:58;7.40;99.90
5901;DHT22;2976;49.764;9.796;2023-05-15T03:04:24;7.30;99.90
5901;DHT22;2976;49.764;9.796;2023-05-15T03:06:49;7.20;99.90
5901;DHT22;2976;49.764;9.796;2023-05-15T03:09:15;7.30;99.90
5901;DHT22;2976;49.764;9.796;2023-05-15T03:11:41;7.30;99.90
5901;DHT22;2976;49.764;9.796;2023-05-15T03:14:06;7.30;99.90
5901;DHT22;2976;49.764;9.796;2023-05-15T03:16:32;7.20;99.90
5901;DHT22;2976;49.764;9.796;2023-05-15T03:18:57;7.20;99.90
5901;DHT22;2976;49.764;9.796;2023-05-15T03:21:23;7.20;99.90
5901;DHT22;2976;49.764;9.796;2023-05-15T03:23:49;7.20;99.90
5901;DHT22;2976;49.764;9.796;2023-05-15T03:26:14;7.20;99.90
5901;DHT22;2976;49.764;9.796;2023-05-15T03:28:40;7.30;99.90
5901;DHT22;2976;49.764;9.796;2023-05-15T03:31:05;7.30;99.90
5901;DHT22;2976;49.764;9.796;2023-05-15T03:33:33;7.30;99.90
5901;DHT22;2976;49.764;9.796;2023-05-15T03:35:58;7.40;99.90
5901;DHT22;2976;49.764;9.796;2023-05-15T03:38:24;7.40;99.90
5901;DHT22;2976;49.764;9.796;2023-05-15T03:40:49;7.40;99.90
5901;DHT22;2976;49.764;9.796;2023-05-15T03:43:15;7.40;99.90
5901;DHT22;2976;49.764;9.796;2023-05-15T03:45:40;7.30;99.90
5901;DHT22;2976;49.764;9.796;2023-05-15T03:48:06;7.30;99.90
5901;DHT22;2976;49.764;9.796;2023-05-15T03:50:32;7.30;99.90
5901;DHT22;2976;49.764;9.796;2023-05-15T03:52:57;7.20;99.90
5901;DHT22;2976;49.764;9.796;2023-05-15T03:55:23;7.10;99.90
5901;DHT22;2976;49.764;9.796;2023-05-15T03:57:49;7.10;99.90
5901;DHT22;2976;49.764;9.796;2023-05-15T04:00:15;7.10;99.90
5901;DHT22;2976;49.764;9.796;2023-05-15T04:02:40;7.10;99.90
5901;DHT22;2976;49.764;9.796;2023-05-15T04:05:07;7.10;99.90
5901;DHT22;2976;49.764;9.796;2023-05-15T04:07:33;7.10;99.90
5901;DHT22;2976;49.764;9.796;2023-05-15T04:09:59;7.10;99.90
5901;DHT22;2976;49.764;9.796;2023-05-15T04:12:30;7.20;99.90
5901;DHT22;2976;49.764;9.796;2023-05-15T04:15:00;7.20;99.90
5901;DHT22;2976;49.764;9.796;2023-05-15T04:17:37;7.10;99.90
5901;DHT22;2976;49.764;9.796;2023-05-15T04:20:02;7.10;99.90
5901;DHT22;2976;49.764;9.796;2023-05-15T04:22:30;7.10;99.90
5901;DHT22;2976;49.764;9.796;2023-05-15T04:24:55;7.10;99.90
5901;DHT22;2976;49.764;9.796;2023-05-15T04:27:21;7.10;99.90
5901;DHT22;2976;49.764;9.796;2023-05-15T04:29:46;7.20;99.90
5901;DHT22;2976;49.764;9.796;2023-05-15T04:32:12;7.20;99.90
5901;DHT22;2976;49.764;9.796;2023-05-15T04:34:37;7.20;99.90
5901;DHT22;2976;49.764;9.796;2023-05-15T04:37:03;7.10;99.90
5901;DHT22;2976;49.764;9.796;2023-05-15T04:39:29;7.20;99.90
5901;DHT22;2976;49.764;9.796;2023-05-15T04:41:55;7.40;99.90
5901;DHT22;2976;49.764;9.796;2023-05-15T04:44:21;7.60;99.90
5901;DHT22;2976;49.764;9.796;2023-05-15T04:46:46;8.10;99.90
5901;DHT22;2976;49.764;9.796;2023-05-15T04:49:12;8.20;99.90
5901;DHT22;2976;49.764;9.796;2023-05-15T04:51:38;8.20;99.90
5901;DHT22;2976;49.764;9.796;2023-05-15T04:54:03;8.10;99.90
5901;DHT22;2976;49.764;9.796;2023-05-15T04:56:29;8.00;99.90
5901;DHT22;2976;49.764;9.796;2023-05-15T04:58:54;8.00;99.90
5901;DHT22;2976;49.764;9.796;2023-05-15T05:01:20;8.10;99.90
5901;DHT22;2976;49.764;9.796;2023-05-15T05:03:45;8.10;99.90
5901;DHT22;2976;49.764;9.796;2023-05-15T05:06:11;8.30;99.90
5901;DHT22;2976;49.764;9.796;2023-05-15T05:08:37;8.60;99.90
5901;DHT22;2976;49.764;9.796;2023-05-15T05:11:02;8.80;99.90
5901;DHT22;2976;49.764;9.796;2023-05-15T05:13:28;8.90;99.90
5901;DHT22;2976;49.764;9.796;2023-05-15T05:15:53;9.20;99.90
5901;DHT22;2976;49.764;9.796;2023-05-15T05:18:19;9.30;99.90
5901;DHT22;2976;49.764;9.796;2023-05-15T05:20:44;9.50;99.90
5901;DHT22;2976;49.764;9.796;2023-05-15T05:23:10;9.50;99.90
5901;DHT22;2976;49.764;9.796;2023-05-15T05:25:35;9.70;99.90
5901;DHT22;2976;49.764;9.796;2023-05-15T05:28:01;9.50;99.90
5901;DHT22;2976;49.764;9.796;2023-05-15T05:30:26;9.50;99.90
5901;DHT22;2976;49.764;9.796;2023-05-15T05:32:52;9.40;99.90
5901;DHT22;2976;49.764;9.796;2023-05-15T05:35:17;9.30;99.90
5901;DHT22;2976;49.764;9.796;2023-05-15T05:37:43;9.30;99.90
5901;DHT22;2976;49.764;9.796;2023-05-15T05:40:09;9.30;99.90
5901;DHT22;2976;49.764;9.796;2023-05-15T05:42:35;9.60;99.90
5901;DHT22;2976;49.764;9.796;2023-05-15T05:45:00;9.90;99.90
5901;DHT22;2976;49.764;9.796;2023-05-15T05:47:26;10.20;99.90
5901;DHT22;2976;49.764;9.796;2023-05-15T05:49:51;10.60;99.90
5901;DHT22;2976;49.764;9.796;2023-05-15T05:52:17;10.90;99.90
5901;DHT22;2976;49.764;9.796;2023-05-15T05:54:42;11.40;99.90
5901;DHT22;2976;49.764;9.796;2023-05-15T05:57:10;11.80;99.90
5901;DHT22;2976;49.764;9.796;2023-05-15T05:59:36;12.40;99.90
5901;DHT22;2976;49.764;9.796;2023-05-15T06:02:01;12.70;99.90
5901;DHT22;2976;49.764;9.796;2023-05-15T06:04:28;12.80;99.90
5901;DHT22;2976;49.764;9.796;2023-05-15T06:06:53;13.10;99.90
5901;DHT22;2976;49.764;9.796;2023-05-15T06:09:19;13.20;99.90
5901;DHT22;2976;49.764;9.796;2023-05-15T06:11:44;13.30;99.90
5901;DHT22;2976;49.764;9.796;2023-05-15T06:14:10;13.50;99.90
5901;DHT22;2976;49.764;9.796;2023-05-15T06:16:36;13.80;99.90
5901;DHT22;2976;49.764;9.796;2023-05-15T06:19:01;13.60;99.90
5901;DHT22;2976;49.764;9.796;2023-05-15T06:21:27;13.50;99.90
5901;DHT22;2976;49.764;9.796;2023-05-15T06:23:53;13.50;99.90
5901;DHT22;2976;49.764;9.796;2023-05-15T06:26:18;13.40;99.90
5901;DHT22;2976;49.764;9.796;2023-05-15T06:28:46;13.10;99.90
5901;DHT22;2976;49.764;9.796;2023-05-15T06:31:11;13.70;99.90
5901;DHT22;2976;49.764;9.796;2023-05-15T06:33:37;14.40;99.90
5901;DHT22;2976;49.764;9.796;2023-05-15T06:36:02;14.30;99.90
5901;DHT22;2976;49.764;9.796;2023-05-15T06:38:28;14.00;99.90
5901;DHT22;2976;49.764;9.796;2023-05-15T06:40:53;13.90;99.90
5901;DHT22;2976;49.764;9.796;2023-05-15T06:43:19;14.00;99.90
5901;DHT22;2976;49.764;9.796;2023-05-15T06:45:44;14.20;99.90
5901;DHT22;2976;49.764;9.796;2023-05-15T06:48:10;15.10;99.90
5901;DHT22;2976;49.764;9.796;2023-05-15T06:50:35;15.20;99.90
5901;DHT22;2976;49.764;9.796;2023-05-15T06:53:01;16.00;99.90
5901;DHT22;2976;49.764;9.796;2023-05-15T06:55:27;16.80;99.90
5901;DHT22;2976;49.764;9.796;2023-05-15T06:57:52;16.80;99.90
5901;DHT22;2976;49.764;9.796;2023-05-15T07:00:18;17.30;99.90
5901;DHT22;2976;49.764;9.796;2023-05-15T07:02:44;17.00;99.90
5901;DHT22;2976;49.764;9.796;2023-05-15T07:05:10;16.70;99.90
5901;DHT22;2976;49.764;9.796;2023-05-15T07:07:35;16.30;99.90
5901;DHT22;2976;49.764;9.796;2023-05-15T07:10:01;16.20;99.90
5901;DHT22;2976;49.764;9.796;2023-05-15T07:12:26;16.30;99.90
5901;DHT22;2976;49.764;9.796;2023-05-15T07:14:52;16.40;99.90
5901;DHT22;2976;49.764;9.796;2023-05-15T07:17:17;17.40;99.90
5901;DHT22;2976;49.764;9.796;2023-05-15T07:19:43;18.50;99.90
5901;DHT22;2976;49.764;9.796;2023-05-15T07:22:09;18.80;99.90
5901;DHT22;2976;49.764;9.796;2023-05-15T07:24:34;18.00;99.90
5901;DHT22;2976;49.764;9.796;2023-05-15T07:27:00;18.30;99.90
5901;DHT22;2976;49.764;9.796;2023-05-15T07:29:26;17.60;99.90
5901;DHT22;2976;49.764;9.796;2023-05-15T07:31:51;17.60;99.90
5901;DHT22;2976;49.764;9.796;2023-05-15T07:34:17;17.40;99.90
5901;DHT22;2976;49.764;9.796;2023-05-15T07:36:42;17.30;99.90
5901;DHT22;2976;49.764;9.796;2023-05-15T07:39:08;17.20;99.90
5901;DHT22;2976;49.764;9.796;2023-05-15T07:41:33;17.00;99.90
5901;DHT22;2976;49.764;9.796;2023-05-15T07:43:59;17.10;99.90
5901;DHT22;2976;49.764;9.796;2023-05-15T07:46:24;17.10;99.90
5901;DHT22;2976;49.764;9.796;2023-05-15T07:48:50;17.00;99.90
5901;DHT22;2976;49.764;9.796;2023-05-15T07:51:16;16.70;99.90
5901;DHT22;2976;49.764;9.796;2023-05-15T07:53:41;16.80;99.90
5901;DHT22;2976;49.764;9.796;2023-05-15T07:56:07;16.90;99.90
5901;DHT22;2976;49.764;9.796;2023-05-15T07:58:32;16.80;99.90
5901;DHT22;2976;49.764;9.796;2023-05-15T08:01:01;16.80;99.90
5901;DHT22;2976;49.764;9.796;2023-05-15T08:03:26;16.90;99.90
5901;DHT22;2976;49.764;9.796;2023-05-15T08:05:52;16.80;99.90
5901;DHT22;2976;49.764;9.796;2023-05-15T08:08:17;17.00;99.90
5901;DHT22;2976;49.764;9.796;2023-05-15T08:10:43;17.20;99.90
5901;DHT22;2976;49.764;9.796;2023-05-15T08:13:09;17.20;99.90
5901;DHT22;2976;49.764;9.796;2023-05-15T08:15:34;17.30;99.90
5901;DHT22;2976;49.764;9.796;2023-05-15T08:18:00;17.60;99.90
5901;DHT22;2976;49.764;9.796;2023-05-15T08:20:25;17.80;99.90
5901;DHT22;2976;49.764;9.796;2023-05-15T08:22:51;17.80;99.90
5901;DHT22;2976;49.764;9.796;2023-05-15T08:25:17;17.70;99.90
5901;DHT22;2976;49.764;9.796;2023-05-15T08:27:42;17.80;99.90
5901;DHT22;2976;49.764;9.796;2023-05-15T08:30:08;17.80;99.90
5901;DHT22;2976;49.764;9.796;2023-05-15T08:32:33;17.70;99.90
5901;DHT22;2976;49.764;9.796;2023-05-15T08:34:59;17.70;99.90
5901;DHT22;2976;49.764;9.796;2023-05-15T08:37:25;18.00;99.90
5901;DHT22;2976;49.764;9.796;2023-05-15T08:39:50;18.10;99.90
5901;DHT22;2976;49.764;9.796;2023-05-15T08:42:33;18.20;99.90
5901;DHT22;2976;49.764;9.796;2023-05-15T08:45:00;18.00;99.90
5901;DHT22;2976;49.764;9.796;2023-05-15T08:47:27;18.20;99.90
5901;DHT22;2976;49.764;9.796;2023-05-15T08:50:13;18.30;99.90
5901;DHT22;2976;49.764;9.796;2023-05-15T08:52:44;18.50;99.90
5901;DHT22;2976;49.764;9.796;2023-05-15T08:55:14;18.60;99.90
5901;DHT22;2976;49.764;9.796;2023-05-15T08:57:41;18.70;99.90
5901;DHT22;2976;49.764;9.796;2023-05-15T09:00:07;19.00;99.90
5901;DHT22;2976;49.764;9.796;2023-05-15T09:02:37;19.10;99.90
5901;DHT22;2976;49.764;9.796;2023-05-15T09:05:06;18.50;99.90
5901;DHT22;2976;49.764;9.796;2023-05-15T09:07:33;18.70;99.90
5901;DHT22;2976;49.764;9.796;2023-05-15T09:10:00;18.90;99.90
5901;DHT22;2976;49.764;9.796;2023-05-15T09:12:26;19.10;99.90
5901;DHT22;2976;49.764;9.796;2023-05-15T09:17:34;18.80;96.00
5901;DHT22;2976;49.764;9.796;2023-05-15T09:20:01;19.10;94.50
5901;DHT22;2976;49.764;9.796;2023-05-15T09:22:35;19.70;97.10
5901;DHT22;2976;49.764;9.796;2023-05-15T09:25:01;19.70;92.90
5901;DHT22;2976;49.764;9.796;2023-05-15T09:27:28;19.70;92.80
5901;DHT22;2976;49.764;9.796;2023-05-15T09:29:53;19.60;92.30
5901;DHT22;2976;49.764;9.796;2023-05-15T09:32:25;20.40;93.20
5901;DHT22;2976;49.764;9.796;2023-05-15T09:34:52;20.80;88.40
5901;DHT22;2976;49.764;9.796;2023-05-15T09:37:31;20.70;83.60
5901;DHT22;2976;49.764;9.796;2023-05-15T09:40:08;20.50;88.30
5901;DHT22;2976;49.764;9.796;2023-05-15T09:42:34;20.10;87.80
5901;DHT22;2976;49.764;9.796;2023-05-15T09:45:03;19.60;90.00
5901;DHT22;2976;49.764;9.796;2023-05-15T09:47:29;19.50;87.40
5901;DHT22;2976;49.764;9.796;2023-05-15T09:49:55;19.10;92.20
5901;DHT22;2976;49.764;9.796;2023-05-15T09:52:20;19.50;87.90
5901;DHT22;2976;49.764;9.796;2023-05-15T09:54:48;20.10;83.10
5901;DHT22;2976;49.764;9.796;2023-05-15T09:57:14;20.40;82.30
5901;DHT22;2976;49.764;9.796;2023-05-15T09:59:44;20.60;80.90
5901;DHT22;2976;49.764;9.796;2023-05-15T10:02:13;20.20;82.20
5901;DHT22;2976;49.764;9.796;2023-05-15T10:04:38;20.10;83.60
5901;DHT22;2976;49.764;9.796;2023-05-15T10:07:06;20.00;84.00
5901;DHT22;2976;49.764;9.796;2023-05-15T10:09:33;20.20;83.30
5901;DHT22;2976;49.764;9.796;2023-05-15T10:11:58;20.20;82.70
5901;DHT22;2976;49.764;9.796;2023-05-15T10:14:25;20.20;85.30
5901;DHT22;2976;49.764;9.796;2023-05-15T10:16:52;19.80;86.50
5901;DHT22;2976;49.764;9.796;2023-05-15T10:19:21;19.80;85.20
5901;DHT22;2976;49.764;9.796;2023-05-15T10:21:50;19.60;80.80
5901;DHT22;2976;49.764;9.796;2023-05-15T10:24:19;19.60;81.50
5901;DHT22;2976;49.764;9.796;2023-05-15T10:26:46;19.60;80.60
5901;DHT22;2976;49.764;9.796;2023-05-15T10:29:17;19.70;83.10
5901;DHT22;2976;49.764;9.796;2023-05-15T10:31:45;19.60;86.00
5901;DHT22;2976;49.764;9.796;2023-05-15T10:34:13;19.50;85.80
5901;DHT22;2976;49.764;9.796;2023-05-15T10:36:41;19.40;86.90
5901;DHT22;2976;49.764;9.796;2023-05-15T10:39:07;18.80;91.40
5901;DHT22;2976;49.764;9.796;2023-05-15T10:41:35;18.20;92.60
5901;DHT22;2976;49.764;9.796;2023-05-15T10:44:02;18.00;94.60
5901;DHT22;2976;49.764;9.796;2023-05-15T10:46:29;17.80;1.00
5901;DHT22;2976;49.764;9.796;2023-05-15T10:48:57;18.00;1.00
5901;DHT22;2976;49.764;9.796;2023-05-15T10:51:25;18.20;1.00
5901;DHT22;2976;49.764;9.796;2023-05-15T10:53:51;18.70;99.90
5901;DHT22;2976;49.764;9.796;2023-05-15T10:56:18;19.20;5.60
5901;DHT22;2976;49.764;9.796;2023-05-15T10:58:47;19.50;1.00
5901;DHT22;2976;49.764;9.796;2023-05-15T11:01:30;19.60;1.00
5901;DHT22;2976;49.764;9.796;2023-05-15T11:06:35;19.20;1.00
5901;DHT22;2976;49.764;9.796;2023-05-15T11:14:23;18.60;99.90
5901;DHT22;2976;49.764;9.796;2023-05-15T11:16:59;18.80;1.00
5901;DHT22;2976;49.764;9.796;2023-05-15T11:22:32;18.90;1.00
5901;DHT22;2976;49.764;9.796;2023-05-15T11:27:38;18.80;99.90
5901;DHT22;2976;49.764;9.796;2023-05-15T11:35:27;18.90;1.00
5901;DHT22;2976;49.764;9.796;2023-05-15T11:37:58;19.20;1.00
5901;DHT22;2976;49.764;9.796;2023-05-15T11:40:32;19.30;92.70
5901;DHT22;2976;49.764;9.796;2023-05-15T11:43:19;19.50;99.90
5901;DHT22;2976;49.764;9.796;2023-05-15T11:45:47;19.60;99.90
5901;DHT22;2976;49.764;9.796;2023-05-15T11:48:15;19.40;79.50
5901;DHT22;2976;49.764;9.796;2023-05-15T11:50:41;19.50;99.90
5901;DHT22;2976;49.764;9.796;2023-05-15T11:53:08;19.10;99.90
5901;DHT22;2976;49.764;9.796;2023-05-15T11:55:39;18.50;1.00
5901;DHT22;2976;49.764;9.796;2023-05-15T11:58:10;18.30;99.90
5901;DHT22;2976;49.764;9.796;2023-05-15T12:00:36;18.20;99.90
5901;DHT22;2976;49.764;9.796;2023-05-15T12:03:02;18.30;1.00
5901;DHT22;2976;49.764;9.796;2023-05-15T12:05:28;18.30;1.00
5901;DHT22;2976;49.764;9.796;2023-05-15T12:07:54;18.20;1.00
5901;DHT22;2976;49.764;9.796;2023-05-15T12:10:20;18.00;1.00
5901;DHT22;2976;49.764;9.796;2023-05-15T12:12:45;18.10;99.90
5901;DHT22;2976;49.764;9.796;2023-05-15T12:15:13;18.30;1.00
5901;DHT22;2976;49.764;9.796;2023-05-15T12:17:40;18.40;1.00
5901;DHT22;2976;49.764;9.796;2023-05-15T12:20:14;18.60;33.80
5901;DHT22;2976;49.764;9.796;2023-05-15T12:22:40;18.80;1.00
5901;DHT22;2976;49.764;9.796;2023-05-15T12:25:08;19.10;1.00
5901;DHT22;2976;49.764;9.796;2023-05-15T12:27:34;19.40;1.00
5901;DHT22;2976;49.764;9.796;2023-05-15T12:30:01;19.60;1.00
5901;DHT22;2976;49.764;9.796;2023-05-15T12:32:29;19.70;99.90
5901;DHT22;2976;49.764;9.796;2023-05-15T12:34:55;19.80;99.90
5901;DHT22;2976;49.764;9.796;2023-05-15T12:37:21;19.70;99.90
5901;DHT22;2976;49.764;9.796;2023-05-15T12:42:16;20.00;99.90
5901;DHT22;2976;49.764;9.796;2023-05-15T12:44:42;19.90;99.90
5901;DHT22;2976;49.764;9.796;2023-05-15T12:47:08;20.20;1.00
5901;DHT22;2976;49.764;9.796;2023-05-15T12:49:37;20.10;99.90
5901;DHT22;2976;49.764;9.796;2023-05-15T12:52:09;20.10;99.90
5901;DHT22;2976;49.764;9.796;2023-05-15T12:54:38;20.20;99.90
5901;DHT22;2976;49.764;9.796;2023-05-15T12:57:06;20.30;99.90
5901;DHT22;2976;49.764;9.796;2023-05-15T12:59:32;20.20;1.00
5901;DHT22;2976;49.764;9.796;2023-05-15T13:01:57;19.80;68.80
5901;DHT22;2976;49.764;9.796;2023-05-15T13:04:23;20.00;1.00
5901;DHT22;2976;49.764;9.796;2023-05-15T13:06:49;20.00;99.90
5901;DHT22;2976;49.764;9.796;2023-05-15T13:09:20;20.00;99.90
5901;DHT22;2976;49.764;9.796;2023-05-15T13:11:47;20.10;99.90
5901;DHT22;2976;49.764;9.796;2023-05-15T13:14:12;20.20;99.90
5901;DHT22;2976;49.764;9.796;2023-05-15T13:16:43;20.00;99.90
5901;DHT22;2976;49.764;9.796;2023-05-15T13:19:09;20.10;99.90
5901;DHT22;2976;49.764;9.796;2023-05-15T13:21:34;20.20;99.90
5901;DHT22;2976;49.764;9.796;2023-05-15T13:24:00;20.60;99.90
5901;DHT22;2976;49.764;9.796;2023-05-15T13:26:26;20.60;99.90
5901;DHT22;2976;49.764;9.796;2023-05-15T13:28:51;20.80;99.90
5901;DHT22;2976;49.764;9.796;2023-05-15T13:31:17;20.90;99.90
5901;DHT22;2976;49.764;9.796;2023-05-15T13:33:42;20.80;99.90
5901;DHT22;2976;49.764;9.796;2023-05-15T13:36:08;20.90;99.90
5901;DHT22;2976;49.764;9.796;2023-05-15T13:38:33;20.70;99.90
5901;DHT22;2976;49.764;9.796;2023-05-15T13:40:59;21.00;99.90
5901;DHT22;2976;49.764;9.796;2023-05-15T13:43:25;20.70;1.00
5901;DHT22;2976;49.764;9.796;2023-05-15T13:45:50;20.30;1.00
5901;DHT22;2976;49.764;9.796;2023-05-15T13:48:16;20.20;1.00
5901;DHT22;2976;49.764;9.796;2023-05-15T13:50:41;20.00;1.00
5901;DHT22;2976;49.764;9.796;2023-05-15T13:53:08;19.80;1.00
5901;DHT22;2976;49.764;9.796;2023-05-15T13:55:33;19.50;99.90
5901;DHT22;2976;49.764;9.796;2023-05-15T13:57:59;19.30;1.00
5901;DHT22;2976;49.764;9.796;2023-05-15T14:00:25;18.80;1.00
5901;DHT22;2976;49.764;9.796;2023-05-15T14:02:51;18.60;99.90
5901;DHT22;2976;49.764;9.796;2023-05-15T14:05:16;18.50;81.00
5901;DHT22;2976;49.764;9.796;2023-05-15T14:07:42;18.50;1.00
5901;DHT22;2976;49.764;9.796;2023-05-15T14:10:08;18.50;1.00
5901;DHT22;2976;49.764;9.796;2023-05-15T14:12:35;18.60;1.00
5901;DHT22;2976;49.764;9.796;2023-05-15T14:15:01;18.50;99.30
5901;DHT22;2976;49.764;9.796;2023-05-15T14:17:27;18.70;99.90
5901;DHT22;2976;49.764;9.796;2023-05-15T14:19:53;18.90;99.90
5901;DHT22;2976;49.764;9.796;2023-05-15T14:22:18;18.90;11.40
5901;DHT22;2976;49.764;9.796;2023-05-15T14:24:44;19.00;1.00
5901;DHT22;2976;49.764;9.796;2023-05-15T14:27:09;19.20;99.90
5901;DHT22;2976;49.764;9.796;2023-05-15T14:29:35;19.20;1.00
5901;DHT22;2976;49.764;9.796;2023-05-15T14:32:01;19.10;1.00
5901;DHT22;2976;49.764;9.796;2023-05-15T14:34:28;18.90;99.90
5901;DHT22;2976;49.764;9.796;2023-05-15T14:36:53;18.70;1.00
5901;DHT22;2976;49.764;9.796;2023-05-15T14:39:19;18.50;1.00
5901;DHT22;2976;49.764;9.796;2023-05-15T14:41:44;18.40;59.40
5901;DHT22;2976;49.764;9.796;2023-05-15T14:44:10;18.30;99.90
5901;DHT22;2976;49.764;9.796;2023-05-15T14:46:36;18.10;1.00
5901;DHT22;2976;49.764;9.796;2023-05-15T14:49:03;18.10;99.90
5901;DHT22;2976;49.764;9.796;2023-05-15T14:51:28;17.90;96.90
5901;DHT22;2976;49.764;9.796;2023-05-15T14:53:54;17.70;99.90
5901;DHT22;2976;49.764;9.796;2023-05-15T14:56:19;17.50;1.00
5901;DHT22;2976;49.764;9.796;2023-05-15T14:58:46;17.60;99.90
5901;DHT22;2976;49.764;9.796;2023-05-15T15:01:13;17.70;1.00
5901;DHT22;2976;49.764;9.796;2023-05-15T15:03:39;17.80;1.00
5901;DHT22;2976;49.764;9.796;2023-05-15T15:06:04;17.80;1.00
5901;DHT22;2976;49.764;9.796;2023-05-15T15:08:30;17.80;1.00
5901;DHT22;2976;49.764;9.796;2023-05-15T15:10:56;17.80;92.80
5901;DHT22;2976;49.764;9.796;2023-05-15T15:13:21;17.50;27.70
5901;DHT22;2976;49.764;9.796;2023-05-15T15:15:48;17.30;88.50
5901;DHT22;2976;49.764;9.796;2023-05-15T15:18:13;17.20;89.30
5901;DHT22;2976;49.764;9.796;2023-05-15T15:20:40;17.20;89.00
5901;DHT22;2976;49.764;9.796;2023-05-15T15:23:05;17.10;90.40
5901;DHT22;2976;49.764;9.796;2023-05-15T15:25:32;17.00;88.20
5901;DHT22;2976;49.764;9.796;2023-05-15T15:27:57;16.90;89.40
5901;DHT22;2976;49.764;9.796;2023-05-15T15:30:23;16.90;87.00
5901;DHT22;2976;49.764;9.796;2023-05-15T15:32:48;16.90;86.50
5901;DHT22;2976;49.764;9.796;2023-05-15T15:35:14;16.90;86.90
5901;DHT22;2976;49.764;9.796;2023-05-15T15:37:39;16.90;87.10
5901;DHT22;2976;49.764;9.796;2023-05-15T15:40:06;17.00;87.50
5901;DHT22;2976;49.764;9.796;2023-05-15T15:42:33;17.10;88.80
5901;DHT22;2976;49.764;9.796;2023-05-15T15:44:59;17.30;87.40
5901;DHT22;2976;49.764;9.796;2023-05-15T15:47:24;17.40;90.20
5901;DHT22;2976;49.764;9.796;2023-05-15T15:49:51;17.40;89.10
5901;DHT22;2976;49.764;9.796;2023-05-15T15:52:18;17.40;88.80
5901;DHT22;2976;49.764;9.796;2023-05-15T15:54:44;17.40;86.10
5901;DHT22;2976;49.764;9.796;2023-05-15T15:57:20;17.40;84.60
5901;DHT22;2976;49.764;9.796;2023-05-15T15:59:46;17.30;86.40
5901;DHT22;2976;49.764;9.796;2023-05-15T16:02:12;17.30;86.80
5901;DHT22;2976;49.764;9.796;2023-05-15T16:04:39;17.40;86.20
5901;DHT22;2976;49.764;9.796;2023-05-15T16:07:05;17.30;86.10
5901;DHT22;2976;49.764;9.796;2023-05-15T16:09:31;17.40;88.10
5901;DHT22;2976;49.764;9.796;2023-05-15T16:11:57;17.40;86.50
5901;DHT22;2976;49.764;9.796;2023-05-15T16:14:23;17.50;88.10
5901;DHT22;2976;49.764;9.796;2023-05-15T16:16:51;17.50;88.90
5901;DHT22;2976;49.764;9.796;2023-05-15T16:19:16;17.60;89.70
5901;DHT22;2976;49.764;9.796;2023-05-15T16:21:42;17.70;87.80
5901;DHT22;2976;49.764;9.796;2023-05-15T16:24:08;17.70;89.30
5901;DHT22;2976;49.764;9.796;2023-05-15T16:26:35;17.80;90.40
5901;DHT22;2976;49.764;9.796;2023-05-15T16:29:01;17.80;88.80
5901;DHT22;2976;49.764;9.796;2023-05-15T16:31:26;17.70;88.70
5901;DHT22;2976;49.764;9.796;2023-05-15T16:33:52;17.70;88.80
5901;DHT22;2976;49.764;9.796;2023-05-15T16:36:17;17.70;87.20
5901;DHT22;2976;49.764;9.796;2023-05-15T16:38:43;17.70;86.80
5901;DHT22;2976;49.764;9.796;2023-05-15T16:41:09;17.80;87.70
5901;DHT22;2976;49.764;9.796;2023-05-15T16:43:35;17.90;87.70
5901;DHT22;2976;49.764;9.796;2023-05-15T16:46:02;18.00;86.60
5901;DHT22;2976;49.764;9.796;2023-05-15T16:48:28;17.80;87.30